Time;durP1;ratioP1;P1;durP2;ratioP2;P2;SDS_P1;SDS_P2;PMS_P1;PMS_P2;Temp;Humidity;BMP_temperature;BMP_pressure;BME280_temperature;BME280_humidity;BME280_pressure;Samples;Min_cycle;Max_cycle;Signal;HPM_P1;HPM_P2
2022/08/06 00:02:09;;;;;;;2.83;1.20;;;;;;;11.57;100.00;101690.63;4961682;28;20077;-74
2022/08/06 00:04:34;;;;;;;2.30;2.05;;;;;;;11.55;100.00;101705.97;4985274;28;20034;-75
2022/08/06 00:07:00;;;;;;;6.10;1.73;;;;;;;11.57;100.00;101715.53;4967950;28;20088;-74
2022/08/06 00:09:32;;;;;;;4.10;1.37;;;;;;;11.59;100.00;101728.75;4967511;28;20482;-75
2022/08/06 00:11:59;;;;;;;2.28;1.70;;;;;;;11.52;100.00;101717.78;4978850;28;20034;-75
2022/08/06 00:14:24;;;;;;;;;;;;;;;11.45;100.00;101732.75;4968283;28;20493;-75
2022/08/06 00:16:50;;;;;;;;;;;;;;;11.35;100.00;101742.59;4974542;28;19918;-74
2022/08/06 00:19:15;;;;;;;6.30;1.53;;;;;;;11.36;100.00;101737.09;4983454;28;20071;-74
2022/08/06 00:21:41;;;;;;;5.50;1.77;;;;;;;11.41;100.00;101753.56;4972507;28;20306;-74
2022/08/06 00:24:07;;;;;;;2.38;1.88;;;;;;;11.41;100.00;101744.69;4998825;28;20069;-74
2022/08/06 00:26:32;;;;;;;6.30;3.05;;;;;;;11.43;100.00;101744.56;4974992;28;20030;-74
2022/08/06 00:28:58;;;;;;;4.63;1.80;;;;;;;11.38;100.00;101748.50;4964677;28;20131;-75
2022/08/06 00:31:23;;;;;;;3.40;2.40;;;;;;;11.31;100.00;101751.91;4967497;28;20105;-74
2022/08/06 00:33:48;;;;;;;2.03;1.40;;;;;;;11.20;100.00;101750.22;4971136;28;20030;-74
2022/08/06 00:36:14;;;;;;;2.97;1.30;;;;;;;11.20;100.00;101760.91;4999550;28;20034;-74
2022/08/06 00:38:39;;;;;;;4.10;1.80;;;;;;;11.19;100.00;101757.41;4967542;28;20041;-75
2022/08/06 00:41:05;;;;;;;4.00;1.67;;;;;;;11.10;100.00;101755.56;4960767;28;20066;-74
2022/08/06 00:43:31;;;;;;;6.45;1.80;;;;;;;11.08;100.00;101768.22;4985141;28;20033;-74
2022/08/06 00:45:56;;;;;;;5.47;1.92;;;;;;;11.08;100.00;101768.22;4985127;28;20379;-75
2022/08/06 00:48:22;;;;;;;2.60;1.77;;;;;;;11.08;100.00;101772.72;4984383;28;20083;-75
2022/08/06 00:50:47;;;;;;;3.17;1.93;;;;;;;11.02;100.00;101773.28;4984678;28;20087;-74
2022/08/06 00:53:12;;;;;;;5.97;1.90;;;;;;;10.95;100.00;101771.16;4979653;28;20026;-74
2022/08/06 00:55:38;;;;;;;7.73;2.87;;;;;;;10.91;100.00;101771.56;4956578;28;20434;-74
2022/08/06 00:58:04;;;;;;;3.70;1.60;;;;;;;10.92;100.00;101778.63;4998134;28;20526;-74
2022/08/06 01:00:31;;;;;;;8.13;2.33;;;;;;;10.95;100.00;101773.84;4977981;28;20041;-74
2022/08/06 01:02:56;;;;;;;;;;;;;;;11.02;100.00;101783.97;4984905;28;20376;-75
2022/08/06 01:05:21;;;;;;;;;;;;;;;11.04;100.00;101782.00;4967002;28;19967;-74
2022/08/06 01:07:47;;;;;;;4.80;1.90;;;;;;;11.04;100.00;101771.31;4967264;28;20001;-74
2022/08/06 01:10:12;;;;;;;3.60;1.57;;;;;;;11.02;100.00;101781.31;4966617;28;20084;-74
2022/08/06 01:12:37;;;;;;;5.80;2.67;;;;;;;10.90;100.00;101773.41;4971886;28;20105;-74
2022/08/06 01:15:05;;;;;;;3.73;1.83;;;;;;;10.93;100.00;101783.84;4983567;28;20402;-74
2022/08/06 01:17:39;;;;;;;4.32;2.08;;;;;;;10.87;100.00;101789.72;4950648;28;20030;-74
2022/08/06 01:20:41;;;;;;;4.25;1.67;;;;;;;10.81;100.00;101792.94;4982061;28;20039;-75
2022/08/06 01:23:25;;;;;;;4.93;2.92;;;;;;;10.81;100.00;101802.78;4983240;28;20047;-74
2022/08/06 01:26:10;;;;;;;4.95;1.85;;;;;;;10.77;100.00;101799.56;4982816;28;20125;-75
2022/08/06 01:28:45;;;;;;;3.42;1.55;;;;;;;10.72;100.00;101802.66;4983079;28;20034;-74
2022/08/06 01:31:19;;;;;;;5.95;1.80;;;;;;;10.76;100.00;101811.22;4977915;28;20337;-74
2022/08/06 01:33:51;;;;;;;4.68;2.40;;;;;;;10.76;100.00;101811.22;4984325;28;20064;-75
2022/08/06 01:36:23;;;;;;;3.08;2.03;;;;;;;10.77;100.00;101818.28;4974856;28;20042;-74
2022/08/06 01:38:51;;;;;;;8.38;2.85;;;;;;;10.76;100.00;101817.41;4984021;28;20034;-75
2022/08/06 01:41:39;;;;;;;3.92;2.38;;;;;;;10.83;100.00;101817.69;4977808;28;20050;-74
2022/08/06 01:44:11;;;;;;;3.92;2.03;;;;;;;10.83;100.00;101812.34;4972562;28;20465;-75
2022/08/06 01:46:42;;;;;;;7.55;2.40;;;;;;;10.75;100.00;101815.72;4998133;28;20456;-74
2022/08/06 01:49:09;;;;;;;5.28;2.13;;;;;;;10.77;100.00;101819.09;4998362;28;20034;-74
2022/08/06 01:51:37;;;;;;;2.92;2.00;;;;;;;10.73;100.00;101814.19;4966331;28;20539;-75
2022/08/06 01:54:07;;;;;;;13.15;3.75;;;;;;;10.69;100.00;101826.09;4977652;28;20043;-74
2022/08/06 01:56:36;;;;;;;4.57;2.10;;;;;;;10.62;100.00;101808.94;4977942;28;20031;-74
2022/08/06 01:59:04;;;;;;;10.02;2.42;;;;;;;10.67;100.00;101817.38;4983845;28;20134;-74
2022/08/06 02:01:32;;;;;;;4.85;2.10;;;;;;;10.59;100.00;101819.91;4962888;28;20031;-74
2022/08/06 02:04:00;;;;;;;5.72;2.05;;;;;;;10.57;100.00;101817.38;4973347;28;20079;-74
2022/08/06 02:06:32;;;;;;;3.72;2.00;;;;;;;10.53;100.00;101827.47;4983844;28;20372;-74
2022/08/06 02:09:05;;;;;;;5.90;2.45;;;;;;;10.49;100.00;101834.06;4976701;28;20435;-75
2022/08/06 02:11:34;;;;;;;2.50;2.00;;;;;;;10.49;100.00;101833.22;4976884;28;20030;-75
2022/08/06 02:14:01;;;;;;;2.80;2.00;;;;;;;10.53;100.00;101843.47;4975059;28;20513;-74
2022/08/06 02:16:31;;;;;;;;;;;;;;;10.60;100.00;101838.44;4998159;28;20030;-74
2022/08/06 02:19:00;;;;;;;3.17;1.95;;;;;;;10.55;100.00;101830.84;4983184;28;19937;-74
2022/08/06 02:21:26;;;;;;;4.05;2.25;;;;;;;10.59;100.00;101831.44;4965834;28;20111;-74
2022/08/06 02:23:53;;;;;;;3.72;1.60;;;;;;;10.56;100.00;101827.22;4969372;28;20480;-75
2022/08/06 02:26:22;;;;;;;4.90;2.10;;;;;;;10.56;100.00;101829.88;4981770;28;20026;-74
2022/08/06 02:28:49;;;;;;;3.08;1.83;;;;;;;10.53;100.00;101831.97;4983344;28;20065;-74
2022/08/06 02:31:14;;;;;;;5.93;2.00;;;;;;;10.52;100.00;101828.44;4983153;28;20119;-75
2022/08/06 02:33:40;;;;;;;3.17;2.03;;;;;;;10.47;100.00;101829.84;4983312;28;20061;-74
2022/08/06 02:36:14;;;;;;;5.73;2.00;;;;;;;10.44;100.00;101833.63;4983296;28;20045;-74
2022/08/06 02:39:00;;;;;;;2.40;1.63;;;;;;;10.47;100.00;101821.84;4981683;28;20053;-75
2022/08/06 02:41:35;;;;;;;5.78;2.38;;;;;;;10.49;100.00;101828.72;4965052;28;20038;-75
2022/08/06 02:44:14;;;;;;;4.18;2.05;;;;;;;10.50;100.00;101833.06;4981930;28;20038;-74
2022/08/06 02:46:48;;;;;;;11.32;2.35;;;;;;;10.45;100.00;101829.97;4960940;28;20091;-75
2022/08/06 02:49:26;;;;;;;3.25;1.88;;;;;;;10.47;100.00;101828.00;4981156;28;20046;-74
2022/08/06 02:52:00;;;;;;;2.95;1.80;;;;;;;10.40;100.00;101824.19;4982043;28;20133;-74
2022/08/06 02:54:40;;;;;;;4.18;1.83;;;;;;;10.35;100.00;101826.44;5049574;28;20046;-74
2022/08/06 02:57:12;;;;;;;4.03;2.10;;;;;;;10.34;100.00;101822.06;4982800;28;20050;-74
2022/08/06 02:59:45;;;;;;;7.45;2.35;;;;;;;10.36;100.00;101830.78;4982150;28;20069;-74
2022/08/06 03:02:14;;;;;;;6.68;1.98;;;;;;;10.42;100.00;101835.59;4982928;28;20314;-74
2022/08/06 03:04:45;;;;;;;2.25;1.50;;;;;;;10.46;100.00;101846.84;4982988;28;20019;-75
2022/08/06 03:07:13;;;;;;;2.97;2.03;;;;;;;10.43;100.00;101842.63;4977441;28;20034;-74
2022/08/06 03:09:43;;;;;;;8.50;2.40;;;;;;;10.38;100.00;101844.84;4982294;28;20022;-74
2022/08/06 03:12:10;;;;;;;4.53;1.98;;;;;;;10.40;100.00;101850.91;4981274;28;20035;-74
2022/08/06 03:14:38;;;;;;;10.27;2.20;;;;;;;10.38;100.00;101839.50;5004747;28;20391;-75
2022/08/06 03:17:07;;;;;;;5.55;2.13;;;;;;;10.39;100.00;101848.34;4982478;28;20038;-75
2022/08/06 03:19:33;;;;;;;3.92;2.20;;;;;;;10.42;100.00;101856.09;4982272;28;20160;-74
2022/08/06 03:21:59;;;;;;;;;;;;;;;10.43;100.00;101857.78;4983158;28;20043;-74
2022/08/06 03:24:26;;;;;;;4.30;1.70;;;;;;;10.44;100.00;101860.34;4982254;28;20362;-75
2022/08/06 03:26:57;;;;;;;6.35;2.13;;;;;;;10.32;100.00;101856.03;4983349;28;20077;-75
2022/08/06 03:29:25;;;;;;;6.50;2.17;;;;;;;10.28;100.00;101854.63;4984881;28;20045;-74
2022/08/06 03:31:50;;;;;;;2.72;1.65;;;;;;;10.29;100.00;101859.00;4955816;28;20023;-74
2022/08/06 03:34:16;;;;;;;4.55;2.45;;;;;;;10.28;100.00;101855.47;4978434;28;20051;-74
2022/08/06 03:36:42;;;;;;;4.82;1.80;;;;;;;10.35;100.00;101855.81;4973861;28;20026;-74
2022/08/06 03:39:11;;;;;;;7.40;1.90;;;;;;;10.29;100.00;101861.66;4984032;28;20103;-74
2022/08/06 03:41:38;;;;;;;5.65;1.83;;;;;;;10.25;100.00;101860.19;4959797;28;20026;-74
2022/08/06 03:44:04;;;;;;;2.58;1.77;;;;;;;10.22;100.00;101871.97;4981556;28;20503;-76
2022/08/06 03:46:37;;;;;;;7.63;2.72;;;;;;;10.15;100.00;101862.81;4975267;28;20022;-76
2022/08/06 03:49:05;;;;;;;3.25;1.52;;;;;;;10.09;100.00;101863.34;4981597;28;20065;-74
2022/08/06 03:51:33;;;;;;;3.67;1.48;;;;;;;10.11;100.00;101869.41;5012164;28;20076;-74
2022/08/06 03:54:00;;;;;;;2.10;1.42;;;;;;;10.18;100.00;101877.72;4977369;28;20066;-74
2022/08/06 03:56:27;;;;;;;4.65;2.13;;;;;;;10.17;100.00;101871.53;4977437;28;20134;-74
2022/08/06 03:58:56;;;;;;;6.90;1.80;;;;;;;10.30;100.00;101874.88;5011465;28;20121;-74
2022/08/06 04:01:25;;;;;;;4.07;2.75;;;;;;;10.33;100.00;101874.59;4986211;28;20113;-74
2022/08/06 04:03:53;;;;;;;1.85;1.70;;;;;;;10.33;100.00;101879.09;4995522;28;20031;-74
2022/08/06 04:06:21;;;;;;;3.33;1.55;;;;;;;10.33;100.00;101874.59;4974649;28;20123;-75
2022/08/06 04:08:47;;;;;;;2.75;1.50;;;;;;;10.38;100.00;101874.22;4986776;28;20038;-76
2022/08/06 04:11:15;;;;;;;3.85;1.67;;;;;;;10.38;100.00;101876.03;4981354;28;20037;-74
2022/08/06 04:13:43;;;;;;;6.63;1.40;;;;;;;10.48;100.00;101872.41;4986470;28;20438;-74
2022/08/06 04:16:11;;;;;;;4.55;1.10;;;;;;;10.51;100.00;101879.31;5031383;28;20027;-75
2022/08/06 04:18:38;;;;;;;2.97;1.77;;;;;;;10.59;100.00;101879.50;4977178;28;20107;-74
2022/08/06 04:21:11;;;;;;;3.20;1.50;;;;;;;10.60;100.00;101875.84;4985970;28;20824;-76
2022/08/06 04:23:38;;;;;;;3.78;1.65;;;;;;;10.68;100.00;101873.34;4985153;28;20039;-75
2022/08/06 04:26:06;;;;;;;7.18;1.70;;;;;;;10.68;100.00;101869.84;4984965;28;20058;-74
2022/08/06 04:28:35;;;;;;;2.13;1.40;;;;;;;10.72;100.00;101874.78;4985049;28;20054;-75
2022/08/06 04:31:01;;;;;;;2.67;1.75;;;;;;;10.73;100.00;101873.78;4984606;28;20019;-75
2022/08/06 04:33:30;;;;;;;3.60;1.38;;;;;;;10.79;100.00;101875.03;4984990;28;20503;-75
2022/08/06 04:36:04;;;;;;;2.25;1.30;;;;;;;10.87;100.00;101875.22;4984163;28;20086;-74
2022/08/06 04:38:31;;;;;;;6.32;1.65;;;;;;;10.92;100.00;101872.97;4966693;28;20505;-75
2022/08/06 04:40:58;;;;;;;4.68;1.90;;;;;;;10.98;100.00;101880.47;4967094;28;20026;-75
2022/08/06 04:43:24;;;;;;;5.35;1.55;;;;;;;11.11;100.00;101876.66;4967932;28;20507;-76
2022/08/06 04:45:51;;;;;;;4.20;1.30;;;;;;;11.18;100.00;101864.44;4977228;28;20030;-74
2022/08/06 04:48:17;;;;;;;2.88;1.20;;;;;;;11.28;100.00;101875.97;4967456;28;20042;-74
2022/08/06 04:50:42;;;;;;;4.80;1.40;;;;;;;11.40;100.00;101871.34;4984647;28;20014;-74
2022/08/06 04:53:09;;;;;;;3.78;1.23;;;;;;;11.45;100.00;101865.56;4982598;28;20033;-75
2022/08/06 04:55:35;;;;;;;;;;;;;;;11.57;100.00;101875.16;4981634;28;20452;-75
2022/08/06 04:58:01;;;;;;;;;;;;;;;11.70;100.00;101870.34;4969009;28;19971;-74
2022/08/06 05:00:26;;;;;;;1.25;1.10;;;;;;;11.80;100.00;101871.19;4962117;28;20017;-75
2022/08/06 05:02:51;;;;;;;2.20;1.13;;;;;;;11.93;100.00;101875.41;4978197;28;20073;-75
2022/08/06 05:05:20;;;;;;;3.63;0.93;;;;;;;12.12;100.00;101878.03;4979072;28;20065;-75
2022/08/06 05:07:48;;;;;;;3.90;0.98;;;;;;;12.18;100.00;101871.28;4982114;28;20042;-75
2022/08/06 05:10:13;;;;;;;3.08;0.90;;;;;;;12.38;100.00;101872.88;4982961;28;20341;-74
2022/08/06 05:12:44;;;;;;;1.13;1.02;;;;;;;12.64;100.00;101869.53;4984562;28;20058;-77
2022/08/06 05:15:13;;;;;;;5.40;1.35;;;;;;;12.70;100.00;101865.44;4978481;28;20041;-76
2022/08/06 05:17:44;;;;;;;2.80;1.00;;;;;;;13.06;100.00;101856.47;4972055;28;20487;-75
2022/08/06 05:20:18;;;;;;;2.25;0.80;;;;;;;13.49;100.00;101844.16;4982759;28;20049;-76
2022/08/06 05:22:47;;;;;;;4.97;1.08;;;;;;;14.24;100.00;101832.91;4984560;28;20263;-75
2022/08/06 05:25:13;;;;;;;4.78;1.00;;;;;;;14.97;100.00;101793.88;5015950;28;20026;-75
2022/08/06 05:27:40;;;;;;;5.68;0.77;;;;;;;15.62;100.00;101723.91;4974892;28;20567;-76
2022/08/06 05:30:06;;;;;;;3.90;0.80;;;;;;;16.59;100.00;101663.53;4983616;28;20033;-74
2022/08/06 05:32:47;;;;;;;5.93;0.65;;;;;;;16.83;100.00;101528.53;4984128;28;20432;-75
2022/08/06 05:35:13;;;;;;;4.28;1.20;;;;;;;17.59;100.00;101508.56;4972833;28;20137;-76
2022/08/06 05:37:40;;;;;;;2.25;0.88;;;;;;;17.76;100.00;101398.44;4974688;28;20508;-76
2022/08/06 05:40:07;;;;;;;2.03;0.68;;;;;;;18.62;100.00;101396.38;4978513;28;20049;-75
2022/08/06 05:42:32;;;;;;;0.82;0.60;;;;;;;18.30;100.00;101279.75;4957151;28;20033;-77
2022/08/06 05:44:58;;;;;;;2.63;0.87;;;;;;;18.65;100.00;101305.91;4975145;28;20046;-76
2022/08/06 05:47:28;;;;;;;1.45;1.15;;;;;;;19.50;100.00;101338.78;4992844;28;20309;-75
2022/08/06 05:50:04;;;;;;;2.38;1.20;;;;;;;19.27;100.00;101236.31;4983693;28;20027;-75
2022/08/06 05:52:37;;;;;;;3.92;0.70;;;;;;;18.79;100.00;101195.91;4982611;28;20045;-76
2022/08/06 05:55:16;;;;;;;4.93;0.70;;;;;;;18.83;100.00;101283.72;4959044;28;20049;-75
2022/08/06 05:58:01;;;;;;;2.10;0.63;;;;;;;19.14;100.00;101307.53;4983451;28;20070;-75
2022/08/06 06:00:30;;;;;;;2.13;0.65;;;;;;;19.15;93.95;101184.69;4982921;28;20386;-75
2022/08/06 06:02:58;;;;;;;2.40;0.45;;;;;;;19.63;92.60;101276.53;4976744;28;20042;-75
2022/08/06 06:05:25;;;;;;;4.03;0.60;;;;;;;19.74;91.61;101286.75;4998807;28;20065;-76
2022/08/06 06:07:52;;;;;;;2.83;0.90;;;;;;;19.78;91.81;101315.09;4966089;28;20394;-75
2022/08/06 06:10:20;;;;;;;3.63;0.85;;;;;;;19.97;89.19;101299.00;4977309;28;20034;-76
2022/08/06 06:12:46;;;;;;;5.07;0.93;;;;;;;19.63;91.63;101336.09;4983617;28;20041;-77
2022/08/06 06:15:14;;;;;;;4.05;0.65;;;;;;;19.87;89.13;101334.66;4983629;28;20406;-77
2022/08/06 06:17:54;;;;;;;3.75;0.70;;;;;;;19.94;86.69;101308.38;4974543;28;20022;-77
2022/08/06 06:20:25;;;;;;;3.75;0.52;;;;;;;20.39;84.82;101353.75;4981656;28;20039;-77
2022/08/06 06:23:10;;;;;;;2.65;0.40;;;;;;;20.78;81.64;101362.84;4972763;28;20121;-76
2022/08/06 06:25:58;;;;;;;;;;;;;;;20.70;77.83;101233.69;4978866;28;20394;-76
2022/08/06 06:28:35;;;;;;;3.85;0.50;;;;;;;20.33;80.65;101301.22;4980327;28;20381;-75
2022/08/06 06:31:15;;;;;;;2.00;0.50;;;;;;;20.93;81.27;101431.25;4982407;28;20042;-76
2022/08/06 06:34:02;;;;;;;2.38;0.60;;;;;;;21.27;77.06;101385.78;4977800;28;20034;-76
2022/08/06 06:36:30;;;;;;;3.42;0.50;;;;;;;20.98;75.43;101298.44;4984072;28;20608;-76
2022/08/06 06:39:05;;;;;;;1.50;0.80;;;;;;;21.27;78.43;101456.38;4974408;28;20479;-77
2022/08/06 06:41:40;;;;;;;3.83;1.38;;;;;;;21.18;76.19;101376.22;4958907;28;20408;-76
2022/08/06 06:44:21;;;;;;;2.83;0.60;;;;;;;20.89;75.18;101326.06;4984135;28;20117;-74
2022/08/06 06:46:56;;;;;;;2.53;0.85;;;;;;;20.87;76.63;101423.97;4982888;28;20088;-76
2022/08/06 06:49:32;;;;;;;1.50;0.40;;;;;;;20.57;75.31;101307.00;4982064;28;20084;-75
2022/08/06 06:52:10;;;;;;;3.05;0.70;;;;;;;20.48;77.42;101401.28;4974495;28;20061;-76
2022/08/06 06:54:41;;;;;;;1.55;0.60;;;;;;;20.22;76.64;101366.94;4975364;28;20034;-76
2022/08/06 06:57:11;;;;;;;2.85;0.75;;;;;;;20.44;79.53;101509.38;4983760;28;20038;-77
2022/08/06 06:59:41;;;;;;;3.60;0.60;;;;;;;20.94;75.10;101422.06;4957807;28;20026;-76
2022/08/06 07:02:18;;;;;;;4.30;0.63;;;;;;;21.32;75.48;101534.50;4965384;28;20121;-77
2022/08/06 07:04:45;;;;;;;2.22;0.68;;;;;;;21.40;73.73;101488.94;4983056;28;20390;-77
2022/08/06 07:07:12;;;;;;;0.88;0.50;;;;;;;21.58;73.01;101487.38;4983811;28;20105;-76
2022/08/06 07:09:39;;;;;;;2.58;0.47;;;;;;;20.44;75.38;101353.97;4964199;28;20467;-75
2022/08/06 07:12:06;;;;;;;5.70;0.68;;;;;;;20.49;77.17;101454.50;4992113;28;20030;-76
2022/08/06 07:14:34;;;;;;;2.97;0.60;;;;;;;21.02;75.59;101530.38;4966185;28;20091;-77
2022/08/06 07:17:01;;;;;;;1.30;0.45;;;;;;;20.53;79.60;101569.66;4983625;28;20121;-75
2022/08/06 07:19:27;;;;;;;1.50;1.13;;;;;;;20.23;80.90;101550.25;4973640;28;20049;-76
2022/08/06 07:21:53;;;;;;;4.50;0.68;;;;;;;20.42;80.78;101584.69;4982605;28;20037;-76
2022/08/06 07:24:22;;;;;;;;;;;;;;;20.33;79.57;101544.44;4981094;28;20203;-75
2022/08/06 07:26:50;;;;;;;2.03;0.57;;;;;;;20.53;79.93;101598.66;4965921;28;19956;-75
2022/08/06 07:29:17;;;;;;;2.65;0.60;;;;;;;20.11;77.93;101455.16;4984127;28;20480;-76
2022/08/06 07:31:43;;;;;;;2.00;0.55;;;;;;;20.18;79.93;101552.75;4980866;28;20018;-76
2022/08/06 07:34:09;;;;;;;;;;;;;;;20.04;81.35;101584.41;4966940;28;20038;-75
2022/08/06 07:36:42;;;;;;;1.05;0.50;;;;;;;20.90;76.68;101589.09;4981918;28;20314;-76
2022/08/06 07:39:10;;;;;;;1.33;0.70;;;;;;;20.87;74.25;101527.09;4979442;28;20129;-76
2022/08/06 07:41:37;;;;;;;4.30;0.93;;;;;;;20.31;71.54;101335.84;4980613;28;20048;-76
2022/08/06 07:44:07;;;;;;;1.70;0.73;;;;;;;20.81;71.23;101441.09;4963072;28;20041;-76
2022/08/06 07:46:39;;;;;;;0.98;0.40;;;;;;;20.14;73.36;101414.09;4972068;28;20034;-76
2022/08/06 07:49:06;;;;;;;3.92;0.60;;;;;;;19.10;76.47;101344.16;4948303;28;20038;-76
2022/08/06 07:51:36;;;;;;;3.25;0.80;;;;;;;20.23;78.82;101659.53;4980892;28;20025;-77
2022/08/06 07:54:03;;;;;;;2.70;0.68;;;;;;;19.56;77.49;101443.59;4958087;28;20095;-76
2022/08/06 07:56:29;;;;;;;6.90;0.95;;;;;;;18.62;81.07;101382.03;4982635;28;20053;-76
2022/08/06 07:58:56;;;;;;;4.10;1.10;;;;;;;19.37;73.98;101372.94;4974801;28;20080;-76
2022/08/06 08:01:23;;;;;;;1.50;0.90;;;;;;;18.91;74.17;101278.13;5018980;28;20033;-76
2022/08/06 08:06:34;;;;;;;3.17;0.70;;;;;;;19.77;72.66;101410.13;4977038;28;20034;-75
2022/08/06 08:09:03;;;;;;;1.85;0.60;;;;;;;19.36;75.24;101444.38;4982128;28;20026;-76
2022/08/06 08:11:31;;;;;;;3.58;0.82;;;;;;;20.28;71.65;101484.56;4981734;28;20038;-76
2022/08/06 08:13:58;;;;;;;1.48;0.57;;;;;;;19.92;70.60;101377.38;4973209;28;20034;-76
2022/08/06 08:16:26;;;;;;;2.75;1.10;;;;;;;19.99;66.82;101210.19;4968078;28;20117;-76
2022/08/06 08:18:52;;;;;;;2.88;0.70;;;;;;;20.45;66.92;101358.34;5019014;28;20034;-77
2022/08/06 08:21:19;;;;;;;3.63;1.38;;;;;;;20.53;65.98;101328.25;4980453;28;20031;-77
2022/08/06 08:23:46;;;;;;;7.57;1.42;;;;;;;20.02;67.02;101267.53;4956477;28;20089;-76
2022/08/06 08:26:11;;;;;;;3.63;0.80;;;;;;;18.25;74.55;101240.84;4952125;28;20038;-76
2022/08/06 08:28:36;;;;;;;1.17;0.67;;;;;;;18.04;79.41;101376.88;4968105;28;20498;-76
2022/08/06 08:31:03;;;;;;;4.80;1.10;;;;;;;18.22;74.23;101281.81;4967967;28;20483;-76
2022/08/06 08:33:29;;;;;;;;;;;;;;;18.08;79.36;101426.78;4969503;28;20438;-76
2022/08/06 08:35:54;;;;;;;;;;;;;;;18.37;78.35;101474.41;4985309;28;19918;-77
2022/08/06 08:38:20;;;;;;;2.70;1.08;;;;;;;19.59;77.20;101667.97;4968125;28;19910;-77
2022/08/06 08:40:48;;;;;;;3.22;0.85;;;;;;;20.04;71.13;101497.66;4967895;28;20053;-76
2022/08/06 08:43:19;;;;;;;5.68;1.10;;;;;;;20.90;66.92;101469.66;4986078;28;20034;-76
2022/08/06 08:45:49;;;;;;;2.95;1.08;;;;;;;21.22;64.17;101393.75;4985762;28;20030;-76
2022/08/06 08:48:17;;;;;;;4.25;0.82;;;;;;;21.12;64.46;101404.22;4970769;28;20388;-77
2022/08/06 08:50:43;;;;;;;3.92;1.55;;;;;;;21.70;61.33;101312.56;4956731;28;20019;-77
2022/08/06 08:53:13;;;;;;;2.70;1.20;;;;;;;20.70;61.97;101176.72;5009524;28;20039;-76
2022/08/06 08:55:40;;;;;;;4.50;1.10;;;;;;;19.94;67.27;101332.78;4985114;28;20088;-76
2022/08/06 08:58:06;;;;;;;4.10;1.20;;;;;;;19.63;68.82;101311.72;4977618;28;20151;-76
2022/08/06 09:00:32;;;;;;;1.98;1.00;;;;;;;19.30;70.82;101350.44;4984533;28;20121;-76
2022/08/06 09:02:58;;;;;;;2.97;1.45;;;;;;;18.95;73.07;101372.22;4983939;28;20033;-76
2022/08/06 09:05:24;;;;;;;4.43;1.17;;;;;;;18.29;74.60;101323.22;4985240;28;20138;-75
2022/08/06 09:07:51;;;;;;;2.83;1.13;;;;;;;18.29;75.27;101347.53;4954804;28;20039;-76
2022/08/06 09:10:17;;;;;;;7.07;1.55;;;;;;;18.39;73.90;101349.88;4951572;28;20066;-76
2022/08/06 09:12:43;;;;;;;5.63;1.60;;;;;;;18.82;74.88;101479.53;5012344;28;20053;-76
2022/08/06 09:15:09;;;;;;;5.43;1.83;;;;;;;18.30;76.54;101397.84;4980865;28;20542;-76
2022/08/06 09:17:34;;;;;;;2.63;1.20;;;;;;;18.08;85.04;101600.56;4985311;28;20026;-76
2022/08/06 09:20:00;;;;;;;6.35;1.48;;;;;;;17.98;93.21;101756.75;4976164;28;20457;-77
2022/08/06 09:22:26;;;;;;;4.43;1.45;;;;;;;17.67;98.40;101782.00;5035735;28;20637;-76
2022/08/06 09:24:51;;;;;;;5.87;1.87;;;;;;;17.52;100.00;101889.16;4984920;28;20037;-76
2022/08/06 09:27:17;;;;;;;5.13;1.90;;;;;;;17.79;100.00;101947.16;4980554;28;20038;-75
2022/08/06 09:29:54;;;;;;;5.80;1.85;;;;;;;18.17;100.00;101966.13;4984023;28;20029;-77
2022/08/06 09:32:41;;;;;;;4.00;1.30;;;;;;;19.55;85.58;101780.47;4983320;28;20081;-76
2022/08/06 09:35:19;;;;;;;4.15;1.30;;;;;;;20.24;77.05;101658.50;4970243;28;20042;-77
2022/08/06 09:37:45;;;;;;;3.38;1.33;;;;;;;21.12;71.38;101618.72;4967064;28;20164;-77
2022/08/06 09:40:17;;;;;;;4.90;1.67;;;;;;;20.98;68.97;101510.16;4961626;28;20117;-77
2022/08/06 09:42:46;;;;;;;2.80;1.73;;;;;;;21.66;65.87;101503.44;4983433;28;20035;-76
2022/08/06 09:45:13;;;;;;;4.85;1.70;;;;;;;21.81;63.58;101417.00;4984408;28;20030;-76
2022/08/06 09:47:40;;;;;;;3.40;2.38;;;;;;;22.46;62.98;101517.31;4956005;28;20046;-77
2022/08/06 09:50:06;;;;;;;5.32;1.95;;;;;;;22.54;58.74;101260.41;4966871;28;20033;-77
2022/08/06 09:52:32;;;;;;;4.40;2.40;;;;;;;22.18;57.42;101106.28;4956928;28;20065;-77
2022/08/06 09:54:57;;;;;;;7.68;2.35;;;;;;;22.61;58.45;101307.41;4990160;28;20472;-76
2022/08/06 09:57:24;;;;;;;6.68;2.05;;;;;;;22.34;60.39;101411.13;4953789;28;20038;-76
2022/08/06 09:59:50;;;;;;;4.18;2.20;;;;;;;21.90;57.29;101075.06;4966430;28;20234;-77
2022/08/06 10:02:20;;;;;;;3.47;2.10;;;;;;;22.02;59.48;101317.06;4984321;28;20057;-77
2022/08/06 10:04:47;;;;;;;3.47;2.22;;;;;;;23.00;55.86;101198.25;4975382;28;20129;-74
2022/08/06 10:07:12;;;;;;;6.18;3.15;;;;;;;22.44;54.46;100974.50;4969793;28;20026;-73
2022/08/06 10:09:53;;;;;;;5.97;2.77;;;;;;;22.21;53.36;100883.69;4966272;28;20477;-76
2022/08/06 10:12:21;;;;;;;5.32;2.38;;;;;;;23.00;53.17;101139.19;4980726;28;20277;-77
2022/08/06 10:14:47;;;;;;;6.43;3.30;;;;;;;23.00;51.94;100997.59;4975514;28;20026;-75
2022/08/06 10:17:17;;;;;;;6.43;2.77;;;;;;;22.13;50.82;100704.56;4966675;28;20045;-76
2022/08/06 10:19:45;;;;;;;4.80;2.95;;;;;;;23.52;52.10;101185.59;4983511;28;20084;-76
2022/08/06 10:22:13;;;;;;;6.80;3.38;;;;;;;23.13;50.41;100901.19;4966575;28;20037;-76
2022/08/06 10:24:53;;;;;;;4.57;3.28;;;;;;;23.64;50.14;101029.41;4984245;28;20486;-76
2022/08/06 10:27:22;;;;;;;4.30;2.92;;;;;;;23.98;49.54;101023.00;4982641;28;20091;-77
2022/08/06 10:29:51;;;;;;;3.05;2.70;;;;;;;22.87;47.47;100590.34;4955750;28;20483;-76
2022/08/06 10:32:25;;;;;;;4.00;3.00;;;;;;;23.09;47.92;100704.81;4983580;28;20042;-76
2022/08/06 10:34:53;;;;;;;3.50;3.05;;;;;;;23.37;47.74;100766.56;4966036;28;20068;-76
2022/08/06 10:37:20;;;;;;;3.63;3.10;;;;;;;23.41;46.12;100640.75;4981489;28;20049;-76
2022/08/06 10:39:49;;;;;;;4.18;3.03;;;;;;;23.31;45.93;100565.97;4974312;28;20035;-76
2022/08/06 10:42:15;;;;;;;6.75;4.43;;;;;;;23.63;47.42;100850.63;4979392;28;20030;-76
2022/08/06 10:44:42;;;;;;;7.55;3.80;;;;;;;24.23;46.15;100882.66;4966115;28;20130;-77
2022/08/06 10:47:07;;;;;;;7.78;3.83;;;;;;;23.37;46.24;100664.94;4978009;28;20033;-76
2022/08/06 10:49:33;;;;;;;5.95;3.05;;;;;;;24.28;44.96;100754.56;4969400;28;20026;-76
2022/08/06 10:51:59;;;;;;;10.93;3.75;;;;;;;23.54;44.19;100483.19;4960835;28;20164;-78
2022/08/06 10:54:25;;;;;;;7.07;3.53;;;;;;;24.03;45.95;100855.94;4973099;28;20042;-76
2022/08/06 10:56:54;;;;;;;5.65;3.78;;;;;;;24.57;44.90;100819.88;4969523;28;20117;-77
2022/08/06 10:59:20;;;;;;;5.97;3.40;;;;;;;24.42;44.32;100744.91;4965510;28;20454;-76
2022/08/06 11:01:54;;;;;;;6.90;3.08;;;;;;;24.37;43.74;100653.97;4983045;28;20026;-76
2022/08/06 11:04:46;;;;;;;3.83;3.05;;;;;;;23.80;42.14;100312.59;4975916;28;20046;-76
2022/08/06 11:07:14;;;;;;;6.22;2.85;;;;;;;24.22;42.38;100477.34;4983411;28;20426;-76
2022/08/06 11:10:05;;;;;;;5.97;3.38;;;;;;;24.49;43.55;100782.09;4981421;28;20037;-76
2022/08/06 11:13:22;;;;;;;4.20;2.90;;;;;;;25.93;41.08;100850.78;4982985;28;20026;-76
2022/08/06 11:15:48;;;;;;;5.00;3.13;;;;;;;25.34;42.54;100790.69;4933593;28;20110;-77
2022/08/06 11:18:13;;;;;;;4.18;3.13;;;;;;;25.10;41.80;100668.06;4972335;28;20582;-76
2022/08/06 11:20:42;;;;;;;4.70;3.50;;;;;;;25.12;41.16;100592.13;4982641;28;20057;-76
2022/08/06 11:23:10;;;;;;;7.40;3.20;;;;;;;24.71;41.53;100555.53;4967940;28;20022;-76
2022/08/06 11:25:44;;;;;;;4.13;2.92;;;;;;;24.90;39.71;100368.38;4999663;28;20026;-76
2022/08/06 11:28:17;;;;;;;4.10;2.70;;;;;;;25.49;40.83;100678.75;4983222;28;20073;-74
2022/08/06 11:30:44;;;;;;;4.57;3.40;;;;;;;25.73;39.27;100561.63;4982479;28;20080;-76
2022/08/06 11:33:11;;;;;;;3.85;2.45;;;;;;;25.30;39.73;100530.00;4983027;28;20080;-76
2022/08/06 11:35:36;;;;;;;3.80;3.10;;;;;;;25.77;40.47;100734.16;4982869;28;20038;-76
2022/08/06 11:38:13;;;;;;;3.33;3.03;;;;;;;25.95;38.24;100587.97;5007772;28;20023;-76